sensor_id;sensor_type;location;lat;lon;timestamp;pressure;altitude;pressure_sealevel;temperature;humidity
37648;BME280;23490;53.656;10.076;2023-05-02T00:00:27;98604.41;;;-145.95;85.35
37648;BME280;23490;53.656;10.076;2023-05-02T00:02:53;98608.53;;;-145.95;85.92
37648;BME280;23490;53.656;10.076;2023-05-02T00:05:19;98583.75;;;-145.95;86.03
37648;BME280;23490;53.656;10.076;2023-05-02T00:07:44;98596.16;;;-145.95;86.21
37648;BME280;23490;53.656;10.076;2023-05-02T00:10:10;98616.78;;;-145.95;87.00
37648;BME280;23490;53.656;10.076;2023-05-02T00:12:35;98620.94;;;-145.95;87.58
37648;BME280;23490;53.656;10.076;2023-05-02T00:15:01;98608.53;;;-145.95;89.19
37648;BME280;23490;53.656;10.076;2023-05-02T00:17:26;98612.66;;;-145.95;89.31
37648;BME280;23490;53.656;10.076;2023-05-02T00:19:51;98587.88;;;-145.95;89.49
37648;BME280;23490;53.656;10.076;2023-05-02T00:22:17;98608.53;;;-145.95;90.62
37648;BME280;23490;53.656;10.076;2023-05-02T00:24:42;98579.63;;;-145.95;90.57
37648;BME280;23490;53.656;10.076;2023-05-02T00:27:07;98604.41;;;-145.95;91.54
37648;BME280;23490;53.656;10.076;2023-05-02T00:29:33;98666.34;;;-145.95;92.61
37648;BME280;23490;53.656;10.076;2023-05-02T00:31:58;98645.69;;;-145.95;93.38
37648;BME280;23490;53.656;10.076;2023-05-02T00:34:28;98627.13;;;-145.95;94.52
37648;BME280;23490;53.656;10.076;2023-05-02T00:36:54;98612.66;;;-145.95;95.26
37648;BME280;23490;53.656;10.076;2023-05-02T00:39:19;98637.44;;;-145.95;95.28
37648;BME280;23490;53.656;10.076;2023-05-02T00:41:44;98658.09;;;-145.95;95.51
37648;BME280;23490;53.656;10.076;2023-05-02T00:44:10;98604.41;;;-145.95;95.76
37648;BME280;23490;53.656;10.076;2023-05-02T00:46:35;98653.97;;;-145.95;95.75
37648;BME280;23490;53.656;10.076;2023-05-02T00:49:01;98620.94;;;-145.95;95.84
37648;BME280;23490;53.656;10.076;2023-05-02T00:51:26;98620.94;;;-145.95;96.17
37648;BME280;23490;53.656;10.076;2023-05-02T00:53:53;98616.78;;;-145.95;96.62
37648;BME280;23490;53.656;10.076;2023-05-02T00:56:18;98592.03;;;-145.95;97.33
37648;BME280;23490;53.656;10.076;2023-05-02T00:58:44;98660.16;;;-145.95;97.98
37648;BME280;23490;53.656;10.076;2023-05-02T01:01:35;98637.44;;;-145.95;97.59
37648;BME280;23490;53.656;10.076;2023-05-02T01:07:13;98641.56;;;-145.95;97.58
37648;BME280;23490;53.656;10.076;2023-05-02T01:12:47;98633.31;;;-145.95;98.05
37648;BME280;23490;53.656;10.076;2023-05-02T01:15:19;98660.16;;;-145.95;99.53
37648;BME280;23490;53.656;10.076;2023-05-02T01:17:46;98664.28;;;-145.95;100.00
37648;BME280;23490;53.656;10.076;2023-05-02T01:20:16;98668.41;;;-145.95;100.00
37648;BME280;23490;53.656;10.076;2023-05-02T01:22:44;98653.97;;;-145.95;100.00
37648;BME280;23490;53.656;10.076;2023-05-02T01:25:36;98687.00;;;-145.95;100.00
37648;BME280;23490;53.656;10.076;2023-05-02T01:28:16;98629.19;;;-145.95;100.00
37648;BME280;23490;53.656;10.076;2023-05-02T01:30:47;98660.16;;;-145.95;100.00
37648;BME280;23490;53.656;10.076;2023-05-02T01:33:16;98676.69;;;-145.95;100.00
37648;BME280;23490;53.656;10.076;2023-05-02T01:35:43;98680.81;;;-145.95;100.00
37648;BME280;23490;53.656;10.076;2023-05-02T01:38:13;98687.00;;;-145.95;100.00
37648;BME280;23490;53.656;10.076;2023-05-02T01:40:40;98684.94;;;-145.95;100.00
37648;BME280;23490;53.656;10.076;2023-05-02T01:43:10;98691.13;;;-145.95;100.00
37648;BME280;23490;53.656;10.076;2023-05-02T01:45:37;98703.53;;;-145.95;100.00
37648;BME280;23490;53.656;10.076;2023-05-02T01:48:05;98746.88;;;-145.95;100.00
37648;BME280;23490;53.656;10.076;2023-05-02T01:50:32;98701.44;;;-145.95;100.00
37648;BME280;23490;53.656;10.076;2023-05-02T01:52:59;98724.16;;;-145.95;100.00
37648;BME280;23490;53.656;10.076;2023-05-02T01:55:26;98713.84;;;-145.95;100.00
37648;BME280;23490;53.656;10.076;2023-05-02T01:57:53;98715.91;;;-145.95;100.00
37648;BME280;23490;53.656;10.076;2023-05-02T02:00:20;98736.56;;;-145.95;100.00
37648;BME280;23490;53.656;10.076;2023-05-02T02:02:46;98740.69;;;-145.95;100.00
37648;BME280;23490;53.656;10.076;2023-05-02T02:05:13;98753.06;;;-145.95;100.00
37648;BME280;23490;53.656;10.076;2023-05-02T02:07:38;98753.06;;;-145.95;100.00
37648;BME280;23490;53.656;10.076;2023-05-02T02:10:04;98736.56;;;-145.95;100.00
37648;BME280;23490;53.656;10.076;2023-05-02T02:12:35;98699.38;;;-145.95;100.00
37648;BME280;23490;53.656;10.076;2023-05-02T02:15:11;98709.72;;;-145.95;100.00
37648;BME280;23490;53.656;10.076;2023-05-02T02:17:48;98728.28;;;-145.95;100.00
37648;BME280;23490;53.656;10.076;2023-05-02T02:20:20;98744.81;;;-145.95;100.00
37648;BME280;23490;53.656;10.076;2023-05-02T02:22:46;98680.81;;;-145.95;100.00
37648;BME280;23490;53.656;10.076;2023-05-02T02:25:14;98736.56;;;-145.95;100.00
37648;BME280;23490;53.656;10.076;2023-05-02T02:27:41;98707.66;;;-145.95;100.00
37648;BME280;23490;53.656;10.076;2023-05-02T02:30:10;98715.91;;;-145.95;100.00
37648;BME280;23490;53.656;10.076;2023-05-02T02:32:35;98684.94;;;-145.95;100.00
37648;BME280;23490;53.656;10.076;2023-05-02T02:35:01;98728.28;;;-145.95;100.00
37648;BME280;23490;53.656;10.076;2023-05-02T02:37:32;98707.66;;;-145.95;100.00
37648;BME280;23490;53.656;10.076;2023-05-02T02:50:35;98753.06;;;-145.95;100.00
37648;BME280;23490;53.656;10.076;2023-05-02T02:53:04;98777.84;;;-145.95;100.00
37648;BME280;23490;53.656;10.076;2023-05-02T02:55:39;98781.97;;;-145.95;100.00
37648;BME280;23490;53.656;10.076;2023-05-02T02:58:19;98839.78;;;-145.95;100.00
37648;BME280;23490;53.656;10.076;2023-05-02T03:00:46;98856.31;;;-145.95;100.00
37648;BME280;23490;53.656;10.076;2023-05-02T03:03:13;98843.94;;;-145.95;100.00
37648;BME280;23490;53.656;10.076;2023-05-02T03:05:41;98843.94;;;-145.95;100.00
37648;BME280;23490;53.656;10.076;2023-05-02T03:08:07;98829.47;;;-145.95;100.00
37648;BME280;23490;53.656;10.076;2023-05-02T03:10:33;98889.34;;;-145.95;100.00
37648;BME280;23490;53.656;10.076;2023-05-02T03:12:58;98910.00;;;-145.95;100.00
37648;BME280;23490;53.656;10.076;2023-05-02T03:18:17;98856.31;;;-145.95;100.00
37648;BME280;23490;53.656;10.076;2023-05-02T03:20:43;98926.53;;;-145.95;100.00
37648;BME280;23490;53.656;10.076;2023-05-02T03:23:08;98938.91;;;-145.95;95.81
37648;BME280;23490;53.656;10.076;2023-05-02T03:25:33;98916.19;;;-145.95;95.82
37648;BME280;23490;53.656;10.076;2023-05-02T03:27:59;98936.84;;;-145.95;95.11
37648;BME280;23490;53.656;10.076;2023-05-02T03:30:24;98930.66;;;-145.95;93.66
37648;BME280;23490;53.656;10.076;2023-05-02T03:32:50;98922.41;;;-145.95;92.17
37648;BME280;23490;53.656;10.076;2023-05-02T03:35:16;98959.56;;;-145.95;91.90
37648;BME280;23490;53.656;10.076;2023-05-02T03:37:42;98955.44;;;-145.95;91.17
37648;BME280;23490;53.656;10.076;2023-05-02T03:40:08;98951.31;;;-145.95;91.71
37648;BME280;23490;53.656;10.076;2023-05-02T03:42:34;98984.34;;;-145.95;89.68
37648;BME280;23490;53.656;10.076;2023-05-02T03:45:08;98951.31;;;-145.95;89.28
37648;BME280;23490;53.656;10.076;2023-05-02T03:47:34;98938.91;;;-145.95;88.49
37648;BME280;23490;53.656;10.076;2023-05-02T03:50:00;98943.03;;;-145.95;89.22
37648;BME280;23490;53.656;10.076;2023-05-02T03:52:26;98938.91;;;-145.95;89.15
37648;BME280;23490;53.656;10.076;2023-05-02T03:54:52;98967.81;;;-145.95;88.64
37648;BME280;23490;53.656;10.076;2023-05-02T03:57:17;98943.03;;;-145.95;86.73
37648;BME280;23490;53.656;10.076;2023-05-02T03:59:43;98905.88;;;-145.95;86.28
37648;BME280;23490;53.656;10.076;2023-05-02T04:02:13;98959.56;;;-145.95;85.65
37648;BME280;23490;53.656;10.076;2023-05-02T04:04:39;98963.69;;;-145.95;85.57
37648;BME280;23490;53.656;10.076;2023-05-02T04:07:05;98951.31;;;-145.95;84.59
37648;BME280;23490;53.656;10.076;2023-05-02T04:09:32;98943.03;;;-145.95;85.19
37648;BME280;23490;53.656;10.076;2023-05-02T04:11:57;98967.81;;;-145.95;84.52
37648;BME280;23490;53.656;10.076;2023-05-02T04:14:23;98990.53;;;-145.95;85.29
37648;BME280;23490;53.656;10.076;2023-05-02T04:16:49;98922.41;;;-145.95;83.11
37648;BME280;23490;53.656;10.076;2023-05-02T04:19:15;98967.81;;;-145.95;82.58
37648;BME280;23490;53.656;10.076;2023-05-02T04:21:40;98955.44;;;-145.95;83.04
37648;BME280;23490;53.656;10.076;2023-05-02T04:24:07;98938.91;;;-145.95;82.80
37648;BME280;23490;53.656;10.076;2023-05-02T04:26:33;98947.16;;;-145.95;82.69
37648;BME280;23490;53.656;10.076;2023-05-02T04:28:58;98955.44;;;-145.95;81.51
37648;BME280;23490;53.656;10.076;2023-05-02T04:31:23;98943.03;;;-145.95;81.18
37648;BME280;23490;53.656;10.076;2023-05-02T04:33:49;98971.94;;;-145.95;81.59
37648;BME280;23490;53.656;10.076;2023-05-02T04:36:14;98951.31;;;-145.95;81.81
37648;BME280;23490;53.656;10.076;2023-05-02T04:38:40;98955.44;;;-145.95;81.81
37648;BME280;23490;53.656;10.076;2023-05-02T04:41:06;98943.03;;;-145.95;81.42
37648;BME280;23490;53.656;10.076;2023-05-02T04:43:31;98967.81;;;-145.95;81.05
37648;BME280;23490;53.656;10.076;2023-05-02T04:45:56;98945.09;;;-145.95;80.15
37648;BME280;23490;53.656;10.076;2023-05-02T04:48:22;98959.56;;;-145.95;80.68
37648;BME280;23490;53.656;10.076;2023-05-02T04:50:49;98976.09;;;-145.95;80.18
37648;BME280;23490;53.656;10.076;2023-05-02T04:53:15;98926.53;;;-145.95;80.15
37648;BME280;23490;53.656;10.076;2023-05-02T04:55:40;98992.59;;;-145.95;77.79
37648;BME280;23490;53.656;10.076;2023-05-02T04:58:07;98978.16;;;-145.95;74.96
37648;BME280;23490;53.656;10.076;2023-05-02T05:00:32;98959.56;;;-145.95;74.38
37648;BME280;23490;53.656;10.076;2023-05-02T05:02:57;99000.84;;;-145.95;72.30
37648;BME280;23490;53.656;10.076;2023-05-02T05:05:23;98992.59;;;-145.95;71.34
37648;BME280;23490;53.656;10.076;2023-05-02T05:07:48;99009.13;;;-145.95;71.82
37648;BME280;23490;53.656;10.076;2023-05-02T05:10:14;98992.59;;;-145.95;71.48
37648;BME280;23490;53.656;10.076;2023-05-02T05:12:39;98959.56;;;-145.95;69.88
37648;BME280;23490;53.656;10.076;2023-05-02T05:15:05;98959.56;;;-145.95;69.62
37648;BME280;23490;53.656;10.076;2023-05-02T05:17:31;98965.75;;;-145.95;69.37
37648;BME280;23490;53.656;10.076;2023-05-02T05:19:56;98957.50;;;-145.95;70.29
37648;BME280;23490;53.656;10.076;2023-05-02T05:22:21;98992.59;;;-145.95;70.84
37648;BME280;23490;53.656;10.076;2023-05-02T05:24:54;98959.56;;;-145.95;71.18
37648;BME280;23490;53.656;10.076;2023-05-02T05:27:20;98988.47;;;-145.95;69.30
37648;BME280;23490;53.656;10.076;2023-05-02T05:29:45;98955.44;;;-145.95;69.14
37648;BME280;23490;53.656;10.076;2023-05-02T05:32:11;99005.00;;;-145.95;69.82
37648;BME280;23490;53.656;10.076;2023-05-02T05:34:36;98980.22;;;-145.95;69.96
37648;BME280;23490;53.656;10.076;2023-05-02T05:37:01;98945.09;;;-145.95;70.21
37648;BME280;23490;53.656;10.076;2023-05-02T05:39:27;98976.09;;;-145.95;70.26
37648;BME280;23490;53.656;10.076;2023-05-02T05:41:52;98971.94;;;-145.95;70.61
37648;BME280;23490;53.656;10.076;2023-05-02T05:44:18;98984.34;;;-145.95;71.14
37648;BME280;23490;53.656;10.076;2023-05-02T05:46:46;98967.81;;;-145.95;71.12
37648;BME280;23490;53.656;10.076;2023-05-02T05:49:11;98940.97;;;-145.95;70.73
37648;BME280;23490;53.656;10.076;2023-05-02T05:51:37;98938.91;;;-145.95;71.25
37648;BME280;23490;53.656;10.076;2023-05-02T05:54:02;98943.03;;;-145.95;71.22
37648;BME280;23490;53.656;10.076;2023-05-02T05:56:27;98930.66;;;-145.95;70.74
37648;BME280;23490;53.656;10.076;2023-05-02T05:58:53;98971.94;;;-145.95;70.49
37648;BME280;23490;53.656;10.076;2023-05-02T06:01:19;98992.59;;;-145.95;71.16
37648;BME280;23490;53.656;10.076;2023-05-02T06:03:44;98963.69;;;-145.95;70.14
37648;BME280;23490;53.656;10.076;2023-05-02T06:06:09;98953.38;;;-145.95;70.62
37648;BME280;23490;53.656;10.076;2023-05-02T06:08:35;98955.44;;;-145.95;70.76
37648;BME280;23490;53.656;10.076;2023-05-02T06:11:00;98988.47;;;-145.95;68.81
37648;BME280;23490;53.656;10.076;2023-05-02T06:13:25;98938.91;;;-145.95;68.05
37648;BME280;23490;53.656;10.076;2023-05-02T06:15:51;98951.31;;;-145.95;67.97
37648;BME280;23490;53.656;10.076;2023-05-02T06:18:16;99029.78;;;-145.95;67.63
37648;BME280;23490;53.656;10.076;2023-05-02T06:20:41;98901.75;;;-145.95;67.10
37648;BME280;23490;53.656;10.076;2023-05-02T06:23:07;98976.09;;;-145.95;66.37
37648;BME280;23490;53.656;10.076;2023-05-02T06:25:32;99000.84;;;-145.95;66.12
37648;BME280;23490;53.656;10.076;2023-05-02T06:38:03;98943.03;;;-145.95;65.81
37648;BME280;23490;53.656;10.076;2023-05-02T06:40:29;98976.09;;;-145.95;66.13
37648;BME280;23490;53.656;10.076;2023-05-02T06:42:54;98963.69;;;-145.95;65.77
37648;BME280;23490;53.656;10.076;2023-05-02T06:45:20;98932.72;;;-145.95;64.27
37648;BME280;23490;53.656;10.076;2023-05-02T06:47:45;98940.97;;;-145.95;64.12
37648;BME280;23490;53.656;10.076;2023-05-02T06:50:10;98938.91;;;-145.95;64.16
37648;BME280;23490;53.656;10.076;2023-05-02T06:52:36;98922.41;;;-145.95;63.14
37648;BME280;23490;53.656;10.076;2023-05-02T06:55:01;98947.16;;;-145.95;63.26
37648;BME280;23490;53.656;10.076;2023-05-02T06:57:26;98953.38;;;-145.95;63.02
37648;BME280;23490;53.656;10.076;2023-05-02T06:59:52;98922.41;;;-145.95;62.27
37648;BME280;23490;53.656;10.076;2023-05-02T07:02:17;98936.84;;;-145.95;62.75
37648;BME280;23490;53.656;10.076;2023-05-02T07:04:42;98922.41;;;-145.95;60.32
37648;BME280;23490;53.656;10.076;2023-05-02T07:07:08;98899.69;;;-145.95;60.22
37648;BME280;23490;53.656;10.076;2023-05-02T07:09:33;98922.41;;;-145.95;60.10
37648;BME280;23490;53.656;10.076;2023-05-02T07:11:59;98922.41;;;-145.95;61.11
37648;BME280;23490;53.656;10.076;2023-05-02T07:14:26;98912.06;;;-145.95;60.99
37648;BME280;23490;53.656;10.076;2023-05-02T07:16:52;98907.94;;;-145.95;60.81
37648;BME280;23490;53.656;10.076;2023-05-02T07:19:17;98928.59;;;-145.95;60.78
37648;BME280;23490;53.656;10.076;2023-05-02T07:21:43;98905.88;;;-145.95;61.72
37648;BME280;23490;53.656;10.076;2023-05-02T07:24:08;98872.84;;;-145.95;60.73
37648;BME280;23490;53.656;10.076;2023-05-02T07:26:33;98893.47;;;-145.95;61.01
37648;BME280;23490;53.656;10.076;2023-05-02T07:28:59;98887.28;;;-145.95;60.50
37648;BME280;23490;53.656;10.076;2023-05-02T07:31:24;98883.16;;;-145.95;59.27
37648;BME280;23490;53.656;10.076;2023-05-02T07:33:49;98905.88;;;-145.95;58.05
37648;BME280;23490;53.656;10.076;2023-05-02T07:36:15;98876.97;;;-145.95;58.21
37648;BME280;23490;53.656;10.076;2023-05-02T07:38:40;98874.91;;;-145.95;57.76
37648;BME280;23490;53.656;10.076;2023-05-02T07:41:06;98848.06;;;-145.95;57.48
37648;BME280;23490;53.656;10.076;2023-05-02T07:43:31;98806.75;;;-145.95;56.97
37648;BME280;23490;53.656;10.076;2023-05-02T07:45:56;98885.22;;;-145.95;56.46
37648;BME280;23490;53.656;10.076;2023-05-02T07:48:22;98864.56;;;-145.95;56.64
37648;BME280;23490;53.656;10.076;2023-05-02T07:50:48;98794.38;;;-145.95;57.71
37648;BME280;23490;53.656;10.076;2023-05-02T07:53:13;98846.00;;;-145.95;57.47
37648;BME280;23490;53.656;10.076;2023-05-02T07:55:38;98839.78;;;-145.95;55.88
37648;BME280;23490;53.656;10.076;2023-05-02T07:58:03;98829.47;;;-145.95;56.81
37648;BME280;23490;53.656;10.076;2023-05-02T08:00:29;98854.25;;;-145.95;56.99
37648;BME280;23490;53.656;10.076;2023-05-02T08:02:54;98815.03;;;-145.95;56.42
37648;BME280;23490;53.656;10.076;2023-05-02T08:05:20;98829.47;;;-145.95;55.83
37648;BME280;23490;53.656;10.076;2023-05-02T08:07:45;98831.53;;;-145.95;57.24
37648;BME280;23490;53.656;10.076;2023-05-02T08:10:11;98835.66;;;-145.95;55.39
37648;BME280;23490;53.656;10.076;2023-05-02T08:12:38;98788.19;;;-145.95;56.33
37648;BME280;23490;53.656;10.076;2023-05-02T08:15:06;98810.88;;;-145.95;57.89
37648;BME280;23490;53.656;10.076;2023-05-02T08:17:31;98788.19;;;-145.95;55.58
37648;BME280;23490;53.656;10.076;2023-05-02T08:19:57;98777.84;;;-145.95;56.14
37648;BME280;23490;53.656;10.076;2023-05-02T08:22:22;98767.53;;;-145.95;56.03
37648;BME280;23490;53.656;10.076;2023-05-02T08:24:47;98769.59;;;-145.95;54.88
37648;BME280;23490;53.656;10.076;2023-05-02T08:27:13;98786.09;;;-145.95;55.45
37648;BME280;23490;53.656;10.076;2023-05-02T08:29:38;98790.25;;;-145.95;55.51
37648;BME280;23490;53.656;10.076;2023-05-02T08:32:03;98777.84;;;-145.95;54.70
37648;BME280;23490;53.656;10.076;2023-05-02T08:34:29;98736.56;;;-145.95;54.48
37648;BME280;23490;53.656;10.076;2023-05-02T08:36:55;98742.75;;;-145.95;54.14
37648;BME280;23490;53.656;10.076;2023-05-02T08:39:20;98724.16;;;-145.95;55.24
37648;BME280;23490;53.656;10.076;2023-05-02T08:41:45;98744.81;;;-145.95;56.56
37648;BME280;23490;53.656;10.076;2023-05-02T08:44:11;98713.84;;;-145.95;54.34
37648;BME280;23490;53.656;10.076;2023-05-02T08:46:39;98689.06;;;-145.95;54.10
37648;BME280;23490;53.656;10.076;2023-05-02T08:49:06;98682.88;;;-145.95;53.94
37648;BME280;23490;53.656;10.076;2023-05-02T08:51:33;98684.94;;;-145.95;54.24
37648;BME280;23490;53.656;10.076;2023-05-02T08:54:01;98711.78;;;-145.95;53.40
37648;BME280;23490;53.656;10.076;2023-05-02T08:56:27;98732.44;;;-145.95;53.18
37648;BME280;23490;53.656;10.076;2023-05-02T08:58:52;98711.78;;;-145.95;52.67
37648;BME280;23490;53.656;10.076;2023-05-02T09:01:21;98722.09;;;-145.95;52.86
37648;BME280;23490;53.656;10.076;2023-05-02T09:03:47;98724.16;;;-145.95;53.70
37648;BME280;23490;53.656;10.076;2023-05-02T09:06:15;98687.00;;;-145.95;52.81
37648;BME280;23490;53.656;10.076;2023-05-02T09:08:44;98604.41;;;-145.95;52.98
37648;BME280;23490;53.656;10.076;2023-05-02T09:11:11;98561.06;;;-145.95;52.34
37648;BME280;23490;53.656;10.076;2023-05-02T09:18:56;98674.59;;;-145.95;51.56
37648;BME280;23490;53.656;10.076;2023-05-02T09:21:36;98658.09;;;-145.95;52.71
37648;BME280;23490;53.656;10.076;2023-05-02T09:24:14;98658.09;;;-145.95;52.04
37648;BME280;23490;53.656;10.076;2023-05-02T09:26:40;98623.00;;;-145.95;52.05
37648;BME280;23490;53.656;10.076;2023-05-02T09:29:05;98604.41;;;-145.95;51.61
37648;BME280;23490;53.656;10.076;2023-05-02T09:31:32;98554.84;;;-145.95;51.75
37648;BME280;23490;53.656;10.076;2023-05-02T09:34:14;98532.16;;;-145.95;49.90
37648;BME280;23490;53.656;10.076;2023-05-02T09:36:45;98468.13;;;-145.95;51.02
37648;BME280;23490;53.656;10.076;2023-05-02T09:39:16;98530.06;;;-145.95;49.00
37648;BME280;23490;53.656;10.076;2023-05-02T09:41:43;98550.72;;;-145.95;49.46
37648;BME280;23490;53.656;10.076;2023-05-02T09:44:10;98567.25;;;-145.95;50.43
37648;BME280;23490;53.656;10.076;2023-05-02T09:46:50;98620.94;;;-145.95;51.56
37648;BME280;23490;53.656;10.076;2023-05-02T09:49:16;98625.06;;;-145.95;51.89
37648;BME280;23490;53.656;10.076;2023-05-02T09:51:46;98625.06;;;-145.95;51.66
37648;BME280;23490;53.656;10.076;2023-05-02T09:54:12;98641.56;;;-145.95;52.33
37648;BME280;23490;53.656;10.076;2023-05-02T09:56:54;98649.84;;;-145.95;52.65
37648;BME280;23490;53.656;10.076;2023-05-02T09:59:20;98604.41;;;-145.95;52.37
37648;BME280;23490;53.656;10.076;2023-05-02T10:01:53;98662.22;;;-145.95;53.25
37648;BME280;23490;53.656;10.076;2023-05-02T10:04:19;98625.06;;;-145.95;53.08
37648;BME280;23490;53.656;10.076;2023-05-02T10:06:46;98554.84;;;-145.95;52.89
37648;BME280;23490;53.656;10.076;2023-05-02T10:09:13;98571.38;;;-145.95;52.08
37648;BME280;23490;53.656;10.076;2023-05-02T10:11:41;98525.94;;;-145.95;50.42
37648;BME280;23490;53.656;10.076;2023-05-02T10:14:09;98466.06;;;-145.95;50.09
37648;BME280;23490;53.656;10.076;2023-05-02T10:16:37;98525.94;;;-145.95;50.51
37648;BME280;23490;53.656;10.076;2023-05-02T10:19:11;98525.94;;;-145.95;51.92
37648;BME280;23490;53.656;10.076;2023-05-02T10:21:37;98546.59;;;-145.95;52.64
37648;BME280;23490;53.656;10.076;2023-05-02T10:24:04;98610.59;;;-145.95;53.25
37648;BME280;23490;53.656;10.076;2023-05-02T10:26:30;98608.53;;;-145.95;53.74
37648;BME280;23490;53.656;10.076;2023-05-02T10:28:59;98567.25;;;-145.95;53.85
37648;BME280;23490;53.656;10.076;2023-05-02T10:31:25;98422.72;;;-145.95;53.68
37648;BME280;23490;53.656;10.076;2023-05-02T10:33:53;98212.13;;;-145.95;50.61
37648;BME280;23490;53.656;10.076;2023-05-02T10:36:21;98179.09;;;-145.95;47.10
37648;BME280;23490;53.656;10.076;2023-05-02T10:38:47;98094.47;;;-145.95;44.16
37648;BME280;23490;53.656;10.076;2023-05-02T10:41:18;98208.00;;;-145.95;45.49
37648;BME280;23490;53.656;10.076;2023-05-02T10:43:46;98274.06;;;-145.95;46.01
37648;BME280;23490;53.656;10.076;2023-05-02T10:46:29;98414.47;;;-145.95;47.79
37648;BME280;23490;53.656;10.076;2023-05-02T10:49:02;98447.50;;;-145.95;48.87
37648;BME280;23490;53.656;10.076;2023-05-02T10:51:28;98466.06;;;-145.95;49.03
37648;BME280;23490;53.656;10.076;2023-05-02T10:53:54;98546.59;;;-145.95;50.41
37648;BME280;23490;53.656;10.076;2023-05-02T10:56:21;98538.34;;;-145.95;51.20
37648;BME280;23490;53.656;10.076;2023-05-02T10:58:49;98494.97;;;-145.95;51.07
37648;BME280;23490;53.656;10.076;2023-05-02T11:04:05;98497.03;;;-145.95;50.51
37648;BME280;23490;53.656;10.076;2023-05-02T11:06:33;98505.31;;;-145.95;51.06
37648;BME280;23490;53.656;10.076;2023-05-02T11:11:39;98468.13;;;-145.95;49.39
37648;BME280;23490;53.656;10.076;2023-05-02T11:14:05;98501.19;;;-145.95;49.50
37648;BME280;23490;53.656;10.076;2023-05-02T11:24:51;98468.13;;;-145.95;51.89
37648;BME280;23490;53.656;10.076;2023-05-02T11:27:36;98424.78;;;-145.95;48.78
37648;BME280;23490;53.656;10.076;2023-05-02T11:30:09;98404.13;;;-145.95;46.88
37648;BME280;23490;53.656;10.076;2023-05-02T11:35:25;98424.78;;;-145.95;47.40
37648;BME280;23490;53.656;10.076;2023-05-02T11:38:24;98492.91;;;-145.95;48.40
37648;BME280;23490;53.656;10.076;2023-05-02T11:40:58;98575.50;;;-145.95;50.95
37648;BME280;23490;53.656;10.076;2023-05-02T11:43:25;98583.75;;;-145.95;52.07
37648;BME280;23490;53.656;10.076;2023-05-02T11:45:52;98598.22;;;-145.95;53.04
37648;BME280;23490;53.656;10.076;2023-05-02T11:48:19;98608.53;;;-145.95;53.70
37648;BME280;23490;53.656;10.076;2023-05-02T11:50:49;98581.69;;;-145.95;54.86
37648;BME280;23490;53.656;10.076;2023-05-02T11:53:21;98550.72;;;-145.95;54.20
37648;BME280;23490;53.656;10.076;2023-05-02T11:55:49;98480.53;;;-145.95;55.07
37648;BME280;23490;53.656;10.076;2023-05-02T11:58:16;98530.06;;;-145.95;53.81
37648;BME280;23490;53.656;10.076;2023-05-02T12:00:43;98517.69;;;-145.95;53.50
37648;BME280;23490;53.656;10.076;2023-05-02T12:03:26;98480.53;;;-145.95;52.00
37648;BME280;23490;53.656;10.076;2023-05-02T12:05:51;98548.66;;;-145.95;51.93
37648;BME280;23490;53.656;10.076;2023-05-02T12:08:20;98587.88;;;-145.95;51.97
37648;BME280;23490;53.656;10.076;2023-05-02T12:10:47;98550.72;;;-145.95;52.41
37648;BME280;23490;53.656;10.076;2023-05-02T12:13:13;98563.13;;;-145.95;53.50
37648;BME280;23490;53.656;10.076;2023-05-02T12:15:38;98538.34;;;-145.95;53.25
37648;BME280;23490;53.656;10.076;2023-05-02T12:18:04;98592.03;;;-145.95;52.42
37648;BME280;23490;53.656;10.076;2023-05-02T12:20:29;98620.94;;;-145.95;51.75
37648;BME280;23490;53.656;10.076;2023-05-02T12:22:55;98612.66;;;-145.95;53.06
37648;BME280;23490;53.656;10.076;2023-05-02T12:25:21;98589.97;;;-145.95;52.36
37648;BME280;23490;53.656;10.076;2023-05-02T12:28:00;98592.03;;;-145.95;52.84
37648;BME280;23490;53.656;10.076;2023-05-02T12:30:29;98558.97;;;-145.95;52.42
37648;BME280;23490;53.656;10.076;2023-05-02T12:32:56;98521.81;;;-145.95;50.75
37648;BME280;23490;53.656;10.076;2023-05-02T12:35:23;98494.97;;;-145.95;48.84
37648;BME280;23490;53.656;10.076;2023-05-02T12:37:48;98525.94;;;-145.95;48.44
37648;BME280;23490;53.656;10.076;2023-05-02T12:40:16;98542.47;;;-145.95;47.52
37648;BME280;23490;53.656;10.076;2023-05-02T12:42:42;98546.59;;;-145.95;47.20
37648;BME280;23490;53.656;10.076;2023-05-02T12:45:16;98542.47;;;-145.95;47.35
37648;BME280;23490;53.656;10.076;2023-05-02T12:47:44;98575.50;;;-145.95;47.96
37648;BME280;23490;53.656;10.076;2023-05-02T12:50:10;98554.84;;;-145.95;49.96
37648;BME280;23490;53.656;10.076;2023-05-02T12:52:51;98575.50;;;-145.95;49.21
37648;BME280;23490;53.656;10.076;2023-05-02T12:55:24;98571.38;;;-145.95;49.03
37648;BME280;23490;53.656;10.076;2023-05-02T12:58:02;98583.75;;;-145.95;48.77
37648;BME280;23490;53.656;10.076;2023-05-02T13:00:30;98558.97;;;-145.95;48.84
37648;BME280;23490;53.656;10.076;2023-05-02T13:02:55;98542.47;;;-145.95;49.00
37648;BME280;23490;53.656;10.076;2023-05-02T13:05:21;98525.94;;;-145.95;48.53
37648;BME280;23490;53.656;10.076;2023-05-02T13:07:46;98567.25;;;-145.95;49.25
37648;BME280;23490;53.656;10.076;2023-05-02T13:10:12;98542.47;;;-145.95;49.59
37648;BME280;23490;53.656;10.076;2023-05-02T13:12:38;98530.06;;;-145.95;49.83
37648;BME280;23490;53.656;10.076;2023-05-02T13:15:05;98511.50;;;-145.95;48.63
37648;BME280;23490;53.656;10.076;2023-05-02T13:17:31;98525.94;;;-145.95;49.98
37648;BME280;23490;53.656;10.076;2023-05-02T13:19:56;98505.31;;;-145.95;49.61